createdAt,value
2018-03-23T00:02:49.797Z,0.00
2018-03-23T00:05:15.081Z,0.00
2018-03-23T00:06:14.622Z,0.00
2018-03-23T00:07:14.814Z,0.00
2018-03-23T00:08:14.942Z,0.00
2018-03-23T00:09:15.102Z,0.00
2018-03-23T00:10:15.265Z,0.00
2018-03-23T00:11:15.424Z,0.00
2018-03-23T00:12:15.582Z,0.00
2018-03-23T00:13:15.769Z,0.00
2018-03-23T00:14:15.942Z,0.00
2018-03-23T00:15:16.099Z,0.00
2018-03-23T00:16:16.265Z,0.00
2018-03-23T00:17:16.432Z,0.00
2018-03-23T00:18:16.595Z,0.00
2018-03-23T00:19:16.756Z,0.00
2018-03-23T00:20:16.915Z,0.00
2018-03-23T00:21:17.067Z,0.00
2018-03-23T00:22:17.227Z,0.00
2018-03-23T00:23:17.394Z,0.00
2018-03-23T00:24:17.560Z,0.00
2018-03-23T00:25:17.728Z,0.00
2018-03-23T00:26:17.883Z,0.00
2018-03-23T00:27:18.040Z,0.00
2018-03-23T00:28:18.205Z,0.00
2018-03-23T00:29:18.365Z,0.00
2018-03-23T00:30:18.522Z,0.00
2018-03-23T00:31:18.692Z,0.00
2018-03-23T00:32:18.843Z,0.00
2018-03-23T00:33:19.005Z,0.00
2018-03-23T00:34:19.165Z,0.00
2018-03-23T00:35:19.327Z,0.00
2018-03-23T00:36:19.481Z,0.00
2018-03-23T00:37:19.646Z,0.00
2018-03-23T00:38:19.806Z,0.00
2018-03-23T00:39:19.966Z,0.00
2018-03-23T00:40:20.133Z,0.00
2018-03-23T00:41:20.297Z,0.00
2018-03-23T00:42:20.457Z,0.00
2018-03-23T00:43:20.616Z,0.00
2018-03-23T00:44:20.781Z,0.00
2018-03-23T00:45:20.936Z,0.00
2018-03-23T00:46:21.096Z,0.00
2018-03-23T00:47:21.265Z,0.00
2018-03-23T00:48:21.415Z,0.00
2018-03-23T00:49:21.577Z,0.00
2018-03-23T00:50:21.738Z,0.00
2018-03-23T00:51:21.899Z,0.00
2018-03-23T00:52:22.058Z,0.00
2018-03-23T00:53:22.223Z,0.00
2018-03-23T00:54:22.380Z,0.00
2018-03-23T00:55:22.548Z,0.00
2018-03-23T00:56:22.705Z,0.00
2018-03-23T00:57:22.865Z,0.00
2018-03-23T00:58:23.027Z,0.00
2018-03-23T00:59:23.190Z,0.00
2018-03-23T01:00:23.349Z,0.00
2018-03-23T01:01:23.512Z,0.00
2018-03-23T01:02:23.673Z,0.00
2018-03-23T01:03:23.835Z,0.00
2018-03-23T01:04:24.408Z,0.00
2018-03-23T01:05:24.538Z,0.00
2018-03-23T01:06:24.754Z,0.00
2018-03-23T01:07:24.949Z,0.00
2018-03-23T01:08:25.210Z,0.00
2018-03-23T01:09:25.376Z,0.00
2018-03-23T01:10:25.482Z,0.00
2018-03-23T01:11:25.593Z,0.00
2018-03-23T01:12:25.526Z,0.00
2018-03-23T01:13:25.908Z,0.00
2018-03-23T01:14:26.048Z,0.00
2018-03-23T01:15:26.228Z,0.00
2018-03-23T01:16:26.385Z,0.00
2018-03-23T01:17:26.164Z,0.00
2018-03-23T01:18:26.327Z,0.00
2018-03-23T01:19:26.506Z,0.00
2018-03-23T01:20:26.654Z,0.00
2018-03-23T01:21:26.829Z,0.00
2018-03-23T01:22:26.984Z,0.00
2018-03-23T01:23:27.147Z,0.00
2018-03-23T01:24:27.304Z,0.00
2018-03-23T01:25:27.471Z,0.00
2018-03-23T01:26:27.643Z,0.00
2018-03-23T01:27:27.821Z,0.00
2018-03-23T01:28:27.995Z,0.00
2018-03-23T01:29:28.168Z,0.00
2018-03-23T01:30:28.346Z,0.00
2018-03-23T01:31:28.512Z,0.00
2018-03-23T01:32:28.686Z,0.00
2018-03-23T01:33:28.852Z,0.00
2018-03-23T01:34:29.029Z,0.00
2018-03-23T01:35:29.200Z,0.00
2018-03-23T01:36:29.387Z,0.00
2018-03-23T01:37:29.560Z,0.00
2018-03-23T01:38:29.732Z,0.00
2018-03-23T01:39:29.892Z,0.00
2018-03-23T01:40:30.086Z,0.00
2018-03-23T01:41:30.255Z,0.00
2018-03-23T01:42:30.427Z,0.00
2018-03-23T01:43:30.614Z,0.00
2018-03-23T01:44:30.792Z,0.00
2018-03-23T01:45:30.995Z,0.00
2018-03-23T01:46:31.142Z,0.00
2018-03-23T01:47:31.314Z,0.00
2018-03-23T01:48:31.503Z,0.00
2018-03-23T01:49:31.679Z,0.00
2018-03-23T01:50:31.841Z,0.00
2018-03-23T01:51:32.013Z,0.00
2018-03-23T01:52:32.184Z,0.00
2018-03-23T01:53:32.348Z,0.00
2018-03-23T01:54:32.517Z,0.00
2018-03-23T01:55:32.693Z,0.00
2018-03-23T01:56:32.867Z,0.00
2018-03-23T01:57:33.032Z,0.00
2018-03-23T01:58:33.205Z,0.00
2018-03-23T01:59:33.373Z,0.00
2018-03-23T02:00:33.544Z,0.00
2018-03-23T02:01:33.720Z,0.00
2018-03-23T02:02:33.894Z,0.00
2018-03-23T02:03:34.059Z,0.00
2018-03-23T02:04:34.232Z,0.00
2018-03-23T02:05:34.409Z,0.00
2018-03-23T02:06:34.593Z,0.00
2018-03-23T02:07:34.750Z,0.00
2018-03-23T02:08:34.932Z,0.00
2018-03-23T02:09:35.104Z,0.00
2018-03-23T02:10:35.276Z,0.00
2018-03-23T02:11:35.455Z,0.00
2018-03-23T02:12:35.623Z,0.00
2018-03-23T02:13:35.801Z,0.00
2018-03-23T02:14:35.967Z,0.00
2018-03-23T02:15:36.140Z,0.00
2018-03-23T02:16:36.311Z,0.00
2018-03-23T02:17:36.483Z,0.00
2018-03-23T02:18:36.652Z,0.00
2018-03-23T02:19:36.817Z,0.00
2018-03-23T02:20:37.011Z,0.00
2018-03-23T02:21:37.193Z,0.00
2018-03-23T02:22:37.361Z,0.00
2018-03-23T02:23:37.530Z,0.00
2018-03-23T02:24:37.694Z,0.00
2018-03-23T02:25:37.861Z,0.00
2018-03-23T02:26:38.035Z,0.00
2018-03-23T02:27:38.196Z,0.00
2018-03-23T02:28:38.375Z,0.00
2018-03-23T02:29:38.548Z,0.00
2018-03-23T02:30:38.718Z,0.00
2018-03-23T02:31:38.890Z,0.00
2018-03-23T02:32:39.045Z,0.00
2018-03-23T02:33:39.206Z,0.00
2018-03-23T02:34:39.377Z,0.00
2018-03-23T02:35:39.533Z,0.00
2018-03-23T02:36:39.691Z,0.00
2018-03-23T02:37:39.864Z,0.00
2018-03-23T02:38:40.026Z,0.00
2018-03-23T02:39:40.179Z,0.00
2018-03-23T08:08:47.261Z,292.50
2018-03-23T08:09:47.421Z,281.25
2018-03-23T08:10:47.583Z,275.63
2018-03-23T08:11:47.743Z,275.63
2018-03-23T08:12:47.919Z,270.00
2018-03-23T08:13:48.091Z,258.75
2018-03-23T08:14:48.260Z,241.88
2018-03-23T08:15:48.429Z,241.88
2018-03-23T08:16:48.587Z,281.25
2018-03-23T08:17:48.761Z,303.75
2018-03-23T08:18:48.925Z,326.25
2018-03-23T08:19:49.092Z,331.88
2018-03-23T08:20:49.246Z,309.38
2018-03-23T08:21:49.406Z,264.38
2018-03-23T08:22:49.576Z,230.63
2018-03-23T08:23:49.735Z,225.00
2018-03-23T08:24:49.948Z,241.88
2018-03-23T08:25:50.107Z,292.50
2018-03-23T08:26:50.271Z,326.25
2018-03-23T08:27:50.441Z,326.25
2018-03-23T08:28:50.605Z,303.75
2018-03-23T08:29:50.772Z,258.75
2018-03-23T08:30:50.932Z,230.63
2018-03-23T08:31:51.103Z,230.63
2018-03-23T08:32:51.281Z,241.88
2018-03-23T08:33:51.440Z,275.63
2018-03-23T08:34:51.616Z,315.00
2018-03-23T08:35:51.787Z,343.13
2018-03-23T08:36:51.956Z,337.50
2018-03-23T08:37:52.120Z,343.13
2018-03-23T08:38:52.290Z,331.88
2018-03-23T08:39:52.456Z,315.00
2018-03-23T08:40:52.620Z,326.25
2018-03-23T08:41:52.782Z,360.00
2018-03-23T08:42:52.955Z,399.38
2018-03-23T08:43:53.160Z,393.75
2018-03-23T08:44:53.318Z,343.13
2018-03-23T08:45:53.459Z,303.75
2018-03-23T08:46:53.616Z,281.25
2018-03-23T08:47:53.784Z,275.63
2018-03-23T08:48:53.945Z,275.63
2018-03-23T08:49:54.116Z,309.38
2018-03-23T08:50:54.289Z,348.75
2018-03-23T08:51:54.451Z,348.75
2018-03-23T08:52:54.632Z,309.38
2018-03-23T08:53:54.781Z,292.50
2018-03-23T08:54:54.943Z,298.13
2018-03-23T08:55:55.112Z,292.50
2018-03-23T08:56:55.270Z,270.00
2018-03-23T08:57:55.438Z,258.75
2018-03-23T08:58:55.606Z,275.63
2018-03-23T08:59:55.771Z,320.63
2018-03-23T09:00:55.934Z,410.63
2018-03-23T09:01:56.122Z,461.25
2018-03-23T09:02:56.265Z,472.50
2018-03-23T09:03:56.433Z,472.50
2018-03-23T09:04:56.594Z,410.63
2018-03-23T09:05:56.757Z,348.75
2018-03-23T09:06:56.920Z,337.50
2018-03-23T09:07:57.087Z,354.38
2018-03-23T09:08:57.257Z,343.13
2018-03-23T09:09:57.427Z,320.63
2018-03-23T09:10:57.593Z,286.88
2018-03-23T09:11:57.766Z,275.63
2018-03-23T09:12:57.921Z,253.13
2018-03-23T09:13:58.089Z,230.63
2018-03-23T09:14:58.268Z,219.38
2018-03-23T09:15:58.437Z,208.13
2018-03-23T09:16:58.600Z,202.50
2018-03-23T09:17:58.767Z,213.75
2018-03-23T09:18:58.936Z,230.63
2018-03-23T09:19:59.108Z,258.75
2018-03-23T09:20:59.266Z,270.00
2018-03-23T09:21:59.425Z,264.38
2018-03-23T09:22:59.592Z,264.38
2018-03-23T09:23:59.759Z,275.63
2018-03-23T09:24:59.930Z,275.63
2018-03-23T09:26:00.093Z,230.63
2018-03-23T09:27:00.258Z,219.38
2018-03-23T09:28:00.428Z,247.50
2018-03-23T09:29:00.592Z,303.75
2018-03-23T09:30:00.764Z,326.25
2018-03-23T09:31:00.921Z,326.25
2018-03-23T09:32:01.090Z,309.38
2018-03-23T09:33:01.250Z,298.13
2018-03-23T09:34:01.419Z,309.38
2018-03-23T09:35:01.571Z,320.63
2018-03-23T09:36:01.735Z,348.75
2018-03-23T09:37:01.902Z,388.13
2018-03-23T09:38:02.084Z,382.50
2018-03-23T09:39:02.245Z,376.88
2018-03-23T09:40:02.415Z,382.50
2018-03-23T09:41:02.585Z,393.75
2018-03-23T09:42:02.748Z,388.13
2018-03-23T09:43:02.916Z,354.38
2018-03-23T09:44:03.077Z,348.75
2018-03-23T09:45:03.250Z,331.88
2018-03-23T09:46:03.411Z,309.38
2018-03-23T09:47:03.587Z,281.25
2018-03-23T09:48:03.752Z,275.63
2018-03-23T09:49:03.919Z,281.25
2018-03-23T09:50:04.091Z,270.00
2018-03-23T09:51:04.250Z,264.38
2018-03-23T09:52:04.415Z,258.75
2018-03-23T09:53:04.579Z,253.13
2018-03-23T09:54:04.754Z,264.38
2018-03-23T09:55:04.926Z,264.38
2018-03-23T09:56:05.088Z,264.38
2018-03-23T09:57:05.260Z,281.25
2018-03-23T09:58:05.426Z,326.25
2018-03-23T09:59:05.591Z,376.88
2018-03-23T10:00:05.756Z,388.13
2018-03-23T10:01:05.927Z,382.50
2018-03-23T10:02:06.093Z,365.63
2018-03-23T10:03:06.263Z,354.38
2018-03-23T10:04:06.464Z,360.00
2018-03-23T10:05:06.601Z,360.00
2018-03-23T10:06:06.764Z,371.25
2018-03-23T10:07:06.931Z,382.50
2018-03-23T10:08:07.103Z,399.38
2018-03-23T10:09:07.265Z,427.50
2018-03-23T10:10:07.431Z,483.75
2018-03-23T10:11:07.604Z,573.75
2018-03-23T10:12:07.767Z,652.50
2018-03-23T10:13:07.932Z,703.13
2018-03-23T10:14:08.099Z,663.75
2018-03-23T10:15:08.266Z,663.75
2018-03-23T10:16:08.432Z,669.38
2018-03-23T10:17:08.594Z,652.50
2018-03-23T10:18:08.761Z,624.38
2018-03-23T10:19:08.925Z,596.25
2018-03-23T10:20:09.093Z,579.38
2018-03-23T10:21:09.281Z,562.50
2018-03-23T10:22:09.441Z,545.63
2018-03-23T10:23:09.608Z,528.75
2018-03-23T10:24:09.779Z,540.00
2018-03-23T10:25:09.940Z,551.25
2018-03-23T10:26:10.104Z,517.50
2018-03-23T10:27:10.284Z,466.88
2018-03-23T10:28:10.438Z,421.88
2018-03-23T10:29:10.608Z,365.63
2018-03-23T10:30:10.772Z,343.13
2018-03-23T10:31:10.945Z,360.00
2018-03-23T10:32:11.116Z,371.25
2018-03-23T10:33:11.282Z,354.38
2018-03-23T10:34:11.452Z,337.50
2018-03-23T10:35:11.615Z,320.63
2018-03-23T10:36:11.783Z,315.00
2018-03-23T10:37:11.952Z,315.00
2018-03-23T10:38:12.121Z,326.25
2018-03-23T10:39:12.303Z,326.25
2018-03-23T10:40:12.468Z,343.13
2018-03-23T10:41:12.642Z,360.00
2018-03-23T10:42:12.814Z,388.13
2018-03-23T10:43:12.974Z,438.75
2018-03-23T10:44:13.159Z,438.75
2018-03-23T10:45:13.324Z,466.88
2018-03-23T10:46:13.495Z,511.88
2018-03-23T10:47:13.663Z,511.88
2018-03-23T10:48:13.826Z,500.63
2018-03-23T10:49:13.998Z,472.50
2018-03-23T10:50:14.163Z,421.88
2018-03-23T10:51:14.345Z,382.50
2018-03-23T10:52:14.508Z,371.25
2018-03-23T10:53:14.680Z,393.75
2018-03-23T10:54:14.848Z,405.00
2018-03-23T10:55:15.062Z,427.50
2018-03-23T10:56:15.192Z,461.25
2018-03-23T10:57:15.576Z,455.63
2018-03-23T10:58:15.530Z,495.00
2018-03-23T10:59:15.688Z,590.63
2018-03-23T11:00:15.857Z,742.50
2018-03-23T11:01:16.031Z,900.00
2018-03-23T11:02:16.196Z,1141.88
2018-03-23T11:03:16.368Z,888.75
2018-03-23T11:04:16.531Z,832.50
2018-03-23T11:05:16.732Z,765.00
2018-03-23T11:06:16.901Z,663.75
2018-03-23T11:07:17.066Z,635.63
2018-03-23T11:08:17.239Z,652.50
2018-03-23T11:09:17.412Z,596.25
2018-03-23T11:10:17.592Z,506.25
2018-03-23T11:11:17.758Z,466.88
2018-03-23T11:12:17.931Z,472.50
2018-03-23T11:13:18.098Z,455.63
2018-03-23T11:14:18.255Z,444.38
2018-03-23T11:15:18.419Z,427.50
2018-03-23T11:16:19.295Z,399.38
2018-03-23T11:17:18.748Z,433.13
2018-03-23T11:18:18.920Z,433.13
2018-03-23T11:19:19.094Z,444.38
2018-03-23T11:20:19.252Z,427.50
2018-03-23T11:21:19.425Z,388.13
2018-03-23T11:22:19.598Z,382.50
2018-03-23T11:23:19.765Z,405.00
2018-03-23T11:24:19.942Z,427.50
2018-03-23T11:25:20.105Z,466.88
2018-03-23T11:26:20.372Z,483.75
2018-03-23T11:27:20.508Z,489.38
2018-03-23T11:28:20.677Z,466.88
2018-03-23T11:29:20.844Z,416.25
2018-03-23T11:30:21.072Z,416.25
2018-03-23T11:31:21.181Z,410.63
2018-03-23T11:32:21.343Z,382.50
2018-03-23T11:33:21.794Z,382.50
2018-03-23T11:34:36.370Z,365.63
2018-03-23T11:35:21.891Z,331.88
2018-03-23T11:36:22.076Z,331.88
2018-03-23T11:37:22.244Z,376.88
2018-03-23T11:38:22.414Z,405.00
2018-03-23T11:39:22.591Z,405.00
2018-03-23T11:40:22.758Z,382.50
2018-03-23T11:41:22.927Z,382.50
2018-03-23T11:42:23.093Z,388.13
2018-03-23T11:43:23.257Z,382.50
2018-03-23T11:44:23.445Z,382.50
2018-03-23T11:45:23.594Z,393.75
2018-03-23T11:46:23.758Z,416.25
2018-03-23T11:47:23.938Z,416.25
2018-03-23T11:48:24.126Z,393.75
2018-03-23T11:49:24.297Z,388.13
2018-03-23T11:50:24.475Z,371.25
2018-03-23T11:51:24.639Z,365.63
2018-03-23T11:52:24.800Z,348.75
2018-03-23T11:53:24.962Z,337.50
2018-03-23T11:54:25.146Z,337.50
2018-03-23T11:55:25.302Z,343.13
2018-03-23T11:56:25.501Z,354.38
2018-03-23T11:57:25.633Z,337.50
2018-03-23T11:58:25.802Z,331.88
2018-03-23T11:59:26.019Z,337.50
2018-03-23T12:00:26.152Z,348.75
2018-03-23T12:01:26.316Z,376.88
2018-03-23T12:02:26.484Z,393.75
2018-03-23T12:03:26.664Z,427.50
2018-03-23T12:04:26.830Z,500.63
2018-03-23T12:05:27.002Z,585.00
2018-03-23T12:06:27.173Z,635.63
2018-03-23T12:07:27.403Z,663.75
2018-03-23T12:08:27.545Z,680.63
2018-03-23T12:09:27.712Z,686.25
2018-03-23T12:10:27.882Z,691.88
2018-03-23T12:11:28.044Z,720.00
2018-03-23T12:12:28.217Z,748.13
2018-03-23T12:13:28.390Z,765.00
2018-03-23T12:14:28.594Z,770.63
2018-03-23T12:15:28.736Z,776.25
2018-03-23T12:16:28.904Z,787.50
2018-03-23T12:17:29.078Z,793.13
2018-03-23T12:18:29.249Z,753.75
2018-03-23T12:19:29.416Z,720.00
2018-03-23T12:20:29.611Z,669.38
2018-03-23T12:21:29.824Z,635.63
2018-03-23T12:22:30.010Z,624.38
2018-03-23T12:23:30.130Z,585.00
2018-03-23T12:24:30.305Z,534.38
2018-03-23T12:25:30.467Z,489.38
2018-03-23T12:26:30.667Z,472.50
2018-03-23T12:27:30.853Z,472.50
2018-03-23T12:28:31.009Z,472.50
2018-03-23T12:29:31.182Z,450.00
2018-03-23T12:30:31.355Z,438.75
2018-03-23T12:31:31.514Z,472.50
2018-03-23T12:32:31.680Z,500.63
2018-03-23T12:33:31.853Z,511.88
2018-03-23T12:34:32.030Z,506.25
2018-03-23T12:35:32.198Z,478.13
2018-03-23T12:36:32.445Z,421.88
2018-03-23T12:37:32.513Z,376.88
2018-03-23T12:38:32.684Z,348.75
2018-03-23T12:39:32.850Z,326.25
2018-03-23T12:40:33.019Z,309.38
2018-03-23T12:41:33.189Z,298.13
2018-03-23T12:42:33.367Z,275.63
2018-03-23T12:43:33.537Z,253.13
2018-03-23T12:44:33.710Z,230.63
2018-03-23T12:45:33.910Z,219.38
2018-03-23T12:46:34.056Z,213.75
2018-03-23T12:47:34.225Z,208.13
2018-03-23T12:48:34.396Z,208.13
2018-03-23T12:49:34.564Z,202.50
2018-03-23T12:50:34.737Z,196.88
2018-03-23T12:51:34.905Z,196.88
2018-03-23T12:52:35.068Z,202.50
2018-03-23T12:53:35.239Z,219.38
2018-03-23T12:54:35.403Z,236.25
2018-03-23T12:55:35.573Z,253.13
2018-03-23T12:56:35.752Z,264.38
2018-03-23T12:57:35.921Z,275.63
2018-03-23T12:58:36.097Z,286.88
2018-03-23T12:59:36.261Z,298.13
2018-03-23T13:00:36.433Z,303.75
2018-03-23T13:01:36.612Z,298.13
2018-03-23T13:02:36.782Z,286.88
2018-03-23T13:03:36.949Z,258.75
2018-03-23T13:04:37.116Z,241.88
2018-03-23T13:05:37.292Z,241.88
2018-03-23T13:06:37.451Z,236.25
2018-03-23T13:07:37.621Z,247.50
2018-03-23T13:08:37.789Z,258.75
2018-03-23T13:09:37.952Z,258.75
2018-03-23T13:10:38.120Z,241.88
2018-03-23T13:11:38.288Z,213.75
2018-03-23T13:12:38.463Z,191.25
2018-03-23T13:13:38.630Z,185.63
2018-03-23T13:14:38.790Z,180.00
2018-03-23T13:15:38.969Z,185.63
2018-03-23T13:16:39.136Z,185.63
2018-03-23T13:17:39.322Z,191.25
2018-03-23T13:18:39.493Z,202.50
2018-03-23T13:19:39.660Z,225.00
2018-03-23T13:20:39.851Z,253.13
2018-03-23T13:21:40.014Z,298.13
2018-03-23T13:22:40.212Z,337.50
2018-03-23T13:23:40.344Z,354.38
2018-03-23T13:24:40.510Z,371.25
2018-03-23T13:25:40.703Z,388.13
2018-03-23T13:26:40.870Z,410.63
2018-03-23T13:27:41.051Z,433.13
2018-03-23T13:28:41.221Z,450.00
2018-03-23T13:29:41.388Z,450.00
2018-03-23T13:30:41.557Z,461.25
2018-03-23T13:31:41.717Z,478.13
2018-03-23T13:32:41.882Z,478.13
2018-03-23T13:33:42.050Z,478.13
2018-03-23T13:34:42.227Z,472.50
2018-03-23T13:35:42.395Z,478.13
2018-03-23T13:36:42.569Z,483.75
2018-03-23T13:37:42.730Z,495.00
2018-03-23T13:38:42.903Z,506.25
2018-03-23T13:39:43.085Z,511.88
2018-03-23T13:40:43.250Z,511.88
2018-03-23T13:41:43.406Z,517.50
2018-03-23T13:42:43.577Z,523.13
2018-03-23T13:43:43.743Z,528.75
2018-03-23T13:44:43.927Z,534.38
2018-03-23T13:45:44.102Z,540.00
2018-03-23T13:46:44.267Z,534.38
2018-03-23T13:47:44.430Z,511.88
2018-03-23T13:48:44.598Z,495.00
2018-03-23T13:49:44.776Z,478.13
2018-03-23T13:50:44.948Z,472.50
2018-03-23T13:51:45.113Z,450.00
2018-03-23T13:52:45.283Z,421.88
2018-03-23T13:53:45.443Z,382.50
2018-03-23T13:54:45.614Z,360.00
2018-03-23T13:55:45.859Z,348.75
2018-03-23T13:56:46.831Z,337.50
2018-03-23T13:57:46.257Z,331.88
2018-03-23T13:58:46.330Z,331.88
2018-03-23T13:59:46.495Z,315.00
2018-03-23T14:00:46.660Z,286.88
2018-03-23T14:01:46.840Z,258.75
2018-03-23T14:02:46.993Z,208.13
2018-03-23T14:03:47.929Z,180.00
2018-03-23T14:04:47.326Z,157.50
2018-03-23T14:05:47.483Z,151.88
2018-03-23T14:06:47.655Z,146.25
2018-03-23T14:07:47.835Z,146.25
2018-03-23T14:08:47.982Z,146.25
2018-03-23T14:09:48.154Z,146.25
2018-03-23T14:10:48.356Z,146.25
2018-03-23T14:11:48.539Z,146.25
2018-03-23T14:12:50.112Z,151.88
2018-03-23T14:13:48.845Z,151.88
2018-03-23T14:14:49.097Z,157.50
2018-03-23T14:15:49.210Z,157.50
2018-03-23T14:16:49.387Z,151.88
2018-03-23T14:17:49.680Z,151.88
2018-03-23T14:18:49.744Z,157.50
2018-03-23T14:19:49.910Z,168.75
2018-03-23T14:20:50.075Z,196.88
2018-03-23T14:21:50.920Z,241.88
2018-03-23T14:22:50.502Z,298.13
2018-03-23T14:23:52.363Z,337.50
2018-03-23T14:24:51.005Z,331.88
2018-03-23T14:25:51.049Z,320.63
2018-03-23T14:26:51.087Z,303.75
2018-03-23T14:27:51.252Z,298.13
2018-03-23T14:28:52.377Z,292.50
2018-03-23T14:29:51.624Z,275.63
2018-03-23T14:30:52.423Z,247.50
2018-03-23T14:31:52.084Z,219.38
2018-03-23T14:32:52.146Z,191.25
2018-03-23T14:33:52.386Z,168.75
2018-03-23T14:34:52.495Z,157.50
2018-03-23T14:35:52.657Z,151.88
2018-03-23T14:36:52.952Z,146.25
2018-03-23T14:37:53.020Z,146.25
2018-03-23T14:38:54.917Z,146.25
2018-03-23T14:39:53.415Z,140.63
2018-03-23T14:40:53.497Z,140.63
2018-03-23T14:41:53.662Z,140.63
2018-03-23T14:42:53.824Z,135.00
2018-03-23T14:43:53.989Z,135.00
2018-03-23T14:44:54.152Z,129.38
2018-03-23T14:45:54.327Z,129.38
2018-03-23T14:46:54.507Z,123.75
2018-03-23T14:47:54.666Z,118.13
2018-03-23T14:48:54.829Z,106.88
2018-03-23T14:49:54.994Z,95.63
2018-03-23T14:50:55.161Z,90.00
2018-03-23T14:51:55.938Z,84.38
2018-03-23T14:52:58.498Z,78.75
2018-03-23T14:53:55.586Z,84.38
2018-03-23T14:54:55.751Z,90.00
2018-03-23T14:55:55.911Z,95.63
2018-03-23T14:56:56.072Z,101.25
2018-03-23T14:57:56.237Z,112.50
2018-03-23T14:58:56.931Z,123.75
2018-03-23T14:59:57.434Z,135.00
2018-03-23T15:00:57.428Z,151.88
2018-03-23T15:01:56.981Z,157.50
2018-03-23T15:02:57.155Z,157.50
2018-03-23T15:03:57.916Z,151.88
2018-03-23T15:04:57.451Z,163.13
2018-03-23T15:05:58.416Z,185.63
2018-03-23T15:06:58.424Z,213.75
2018-03-23T15:07:58.021Z,225.00
2018-03-23T15:08:58.066Z,230.63
2018-03-23T15:09:58.250Z,230.63
2018-03-23T15:10:58.418Z,230.63
2018-03-23T15:11:58.586Z,230.63
2018-03-23T15:12:58.812Z,230.63
2018-03-23T15:13:58.927Z,236.25
2018-03-23T15:14:59.097Z,258.75
2018-03-23T15:15:59.261Z,275.63
2018-03-23T15:16:59.456Z,281.25
2018-03-23T15:17:59.603Z,281.25
2018-03-23T15:18:59.794Z,275.63
2018-03-23T15:19:59.959Z,270.00
2018-03-23T15:21:00.123Z,270.00
2018-03-23T15:22:00.298Z,258.75
2018-03-23T15:23:00.449Z,241.88
2018-03-23T15:24:00.610Z,225.00
2018-03-23T15:25:00.774Z,213.75
2018-03-23T15:26:01.934Z,196.88
2018-03-23T15:27:01.109Z,191.25
2018-03-23T15:28:01.264Z,191.25
2018-03-23T15:29:01.432Z,185.63
2018-03-23T15:30:01.654Z,180.00
2018-03-23T15:31:01.789Z,185.63
2018-03-23T15:32:01.971Z,191.25
2018-03-23T15:33:02.138Z,191.25
2018-03-23T15:34:02.302Z,191.25
2018-03-23T15:35:02.463Z,191.25
2018-03-23T15:36:03.455Z,191.25
2018-03-23T15:37:04.422Z,196.88
2018-03-23T15:38:02.967Z,202.50
2018-03-23T15:39:03.131Z,191.25
2018-03-23T15:40:03.293Z,185.63
2018-03-23T15:41:03.468Z,180.00
2018-03-23T15:42:04.449Z,168.75
2018-03-23T15:43:03.741Z,157.50
2018-03-23T15:44:03.949Z,151.88
2018-03-23T15:45:04.203Z,146.25
2018-03-23T15:46:04.957Z,146.25
2018-03-23T15:47:04.466Z,140.63
2018-03-23T15:48:04.620Z,135.00
2018-03-23T15:49:04.799Z,129.38
2018-03-23T15:50:04.975Z,123.75
2018-03-23T15:51:05.196Z,123.75
2018-03-23T15:52:05.322Z,118.13
2018-03-23T15:53:05.482Z,118.13
2018-03-23T15:54:05.650Z,118.13
2018-03-23T15:55:05.819Z,118.13
2018-03-23T15:56:05.994Z,118.13
2018-03-23T15:57:06.165Z,118.13
2018-03-23T15:58:06.330Z,123.75
2018-03-23T15:59:06.510Z,123.75
2018-03-23T16:00:06.671Z,123.75
2018-03-23T16:01:07.487Z,123.75
2018-03-23T16:02:07.102Z,123.75
2018-03-23T16:03:07.187Z,129.38
2018-03-23T16:04:07.358Z,129.38
2018-03-23T16:05:08.431Z,129.38
2018-03-23T16:06:08.427Z,129.38
2018-03-23T16:07:07.835Z,129.38
2018-03-23T16:08:09.938Z,123.75
2018-03-23T16:09:08.944Z,118.13
2018-03-23T16:10:09.356Z,112.50
2018-03-23T16:11:08.518Z,112.50
2018-03-23T16:12:08.705Z,106.88
2018-03-23T16:13:09.436Z,106.88
2018-03-23T16:14:09.930Z,106.88
2018-03-23T16:15:10.858Z,101.25
2018-03-23T16:16:09.220Z,101.25
2018-03-23T16:17:09.379Z,101.25
2018-03-23T16:18:09.546Z,101.25
2018-03-23T16:19:09.712Z,95.63
2018-03-23T16:20:09.889Z,95.63
2018-03-23T16:21:10.050Z,95.63
2018-03-23T16:22:10.220Z,90.00
2018-03-23T16:23:10.406Z,90.00
2018-03-23T16:24:10.571Z,84.38
2018-03-23T16:25:10.748Z,84.38
2018-03-23T16:26:11.440Z,84.38
2018-03-23T16:27:11.109Z,84.38
2018-03-23T16:28:11.279Z,78.75
2018-03-23T16:29:11.455Z,78.75
2018-03-23T16:30:11.614Z,78.75
2018-03-23T16:31:11.782Z,78.75
2018-03-23T16:32:11.945Z,73.13
2018-03-23T16:33:12.109Z,73.13
2018-03-23T16:34:12.280Z,73.13
2018-03-23T16:35:12.449Z,73.13
2018-03-23T16:36:12.618Z,73.13
2018-03-23T16:37:12.786Z,73.13
2018-03-23T16:38:12.950Z,73.13
2018-03-23T16:39:13.124Z,73.13
2018-03-23T16:40:13.311Z,73.13
2018-03-23T16:41:13.489Z,73.13
2018-03-23T16:42:13.647Z,67.50
2018-03-23T16:43:13.814Z,67.50
2018-03-23T16:44:13.979Z,67.50
2018-03-23T16:45:14.145Z,61.88
2018-03-23T16:46:14.309Z,61.88
2018-03-23T16:47:14.468Z,61.88
2018-03-23T16:48:14.633Z,61.88
2018-03-23T16:49:14.823Z,56.25
2018-03-23T16:50:14.990Z,56.25
2018-03-23T16:51:15.156Z,56.25
2018-03-23T16:52:15.323Z,50.63
2018-03-23T16:53:15.481Z,50.63
2018-03-23T16:54:15.671Z,50.63
2018-03-23T16:55:15.827Z,45.00
2018-03-23T16:56:15.996Z,39.38
2018-03-23T16:57:16.166Z,39.38
2018-03-23T16:58:16.330Z,39.38
2018-03-23T16:59:16.502Z,33.75
2018-03-23T17:00:16.673Z,33.75
2018-03-23T17:01:16.843Z,33.75
2018-03-23T17:02:16.992Z,33.75
2018-03-23T17:03:17.174Z,33.75
2018-03-23T17:04:17.358Z,33.75
2018-03-23T17:05:17.535Z,33.75
2018-03-23T17:06:17.694Z,33.75
2018-03-23T17:07:17.852Z,33.75
2018-03-23T17:08:18.027Z,33.75
2018-03-23T17:09:18.192Z,33.75
2018-03-23T17:10:18.368Z,33.75
2018-03-23T17:11:18.529Z,33.75
2018-03-23T17:12:18.706Z,28.13
2018-03-23T17:14:51.969Z,22.50
2018-03-23T17:15:52.143Z,22.50
2018-03-23T17:16:52.310Z,22.50
2018-03-23T17:17:52.581Z,22.50
2018-03-23T17:18:52.633Z,22.50
2018-03-23T17:19:52.791Z,22.50
2018-03-23T17:20:52.967Z,16.88
2018-03-23T17:21:53.149Z,16.88
2018-03-23T17:22:53.314Z,16.88
2018-03-23T17:23:53.477Z,11.25
2018-03-23T17:24:53.669Z,11.25
2018-03-23T17:25:53.803Z,11.25
2018-03-23T17:26:53.975Z,11.25
2018-03-23T17:27:54.137Z,11.25
2018-03-23T17:28:54.308Z,5.63
2018-03-23T17:29:54.512Z,5.63
2018-03-23T17:30:54.681Z,5.63
2018-03-23T17:32:17.503Z,5.63
2018-03-23T17:32:57.036Z,5.63
2018-03-23T17:33:55.194Z,5.63
2018-03-23T17:34:55.362Z,5.63
2018-03-23T17:35:55.593Z,5.63
2018-03-23T17:36:55.642Z,0.00
2018-03-23T17:37:56.536Z,0.00
2018-03-23T17:38:55.955Z,0.00
2018-03-23T17:39:56.142Z,0.00
2018-03-23T17:40:56.306Z,0.00
2018-03-23T17:41:56.475Z,0.00
2018-03-23T17:42:56.643Z,0.00
2018-03-23T17:43:56.807Z,0.00
2018-03-23T17:44:57.508Z,0.00
2018-03-23T17:45:57.171Z,0.00
2018-03-23T17:46:57.343Z,0.00
2018-03-23T17:47:57.511Z,0.00
2018-03-23T17:48:57.682Z,0.00
2018-03-23T17:49:57.850Z,0.00
2018-03-23T17:51:00.507Z,0.00
2018-03-23T17:51:59.003Z,0.00
2018-03-23T17:52:58.300Z,0.00
2018-03-23T17:54:00.003Z,0.00
2018-03-23T17:54:59.539Z,0.00
2018-03-23T17:55:58.826Z,0.00
2018-03-23T17:56:58.976Z,0.00
2018-03-23T17:57:59.165Z,0.00
2018-03-23T17:58:59.397Z,0.00
2018-03-23T17:59:59.484Z,0.00
2018-03-23T18:00:59.725Z,0.00
2018-03-23T18:02:04.582Z,0.00
2018-03-23T18:03:00.050Z,0.00
2018-03-23T18:04:00.215Z,0.00
2018-03-23T18:05:00.314Z,0.00
2018-03-23T18:06:00.489Z,0.00
2018-03-23T18:07:00.658Z,0.00
2018-03-23T18:08:00.826Z,0.00
2018-03-23T18:09:00.986Z,0.00
2018-03-23T18:10:01.186Z,0.00
2018-03-23T18:11:01.351Z,0.00
2018-03-23T18:12:01.514Z,0.00
2018-03-23T18:13:01.675Z,0.00
2018-03-23T18:14:01.846Z,0.00
2018-03-23T18:15:02.025Z,0.00
2018-03-23T18:16:02.189Z,0.00
2018-03-23T18:17:02.339Z,0.00
2018-03-23T18:18:02.523Z,0.00
2018-03-23T18:19:02.688Z,0.00